Time;durP1;ratioP1;P1;durP2;ratioP2;P2;SDS_P1;SDS_P2;PMS_P1;PMS_P2;Temp;Humidity;BMP_temperature;BMP_pressure;BME280_temperature;BME280_humidity;BME280_pressure;Samples;Min_cycle;Max_cycle;Signal;HPM_P1;HPM_P2
2020/12/06 00:01:56;;;;;;;12.98;9.68;;;9.00;99.70;;;;;;5073187;28;20201;-78
2020/12/06 00:04:27;;;;;;;12.77;9.40;;;9.00;99.70;;;;;;5073147;28;20194;-77
2020/12/06 00:06:53;;;;;;;10.40;8.55;;;9.00;99.90;;;;;;5073104;28;20279;-78
2020/12/06 00:09:19;;;;;;;15.35;9.52;;;8.90;99.90;;;;;;5072811;28;20532;-78
2020/12/06 00:11:46;;;;;;;12.63;8.82;;;8.90;99.90;;;;;;5072871;28;20225;-78
2020/12/06 00:14:12;;;;;;;9.40;7.97;;;8.90;99.90;;;;;;5072955;28;20240;-78
2020/12/06 00:16:38;;;;;;;12.60;9.75;;;9.00;99.90;;;;;;5073024;28;20265;-78
2020/12/06 00:19:05;;;;;;;12.90;9.35;;;8.90;99.90;;;;;;5073192;28;20664;-78
2020/12/06 00:21:32;;;;;;;11.40;8.15;;;8.90;99.90;;;;;;5073183;28;20289;-80
2020/12/06 00:23:58;;;;;;;11.20;8.95;;;8.80;99.90;;;;;;5073003;28;20201;-78
2020/12/06 00:26:25;;;;;;;11.30;9.80;;;8.70;99.90;;;;;;5072965;28;20200;-78
2020/12/06 00:28:52;;;;;;;11.38;9.50;;;8.60;99.90;;;;;;5073060;28;20271;-77
2020/12/06 00:31:18;;;;;;;14.07;10.35;;;8.60;99.90;;;;;;5072902;28;20194;-77
2020/12/06 00:33:45;;;;;;;11.80;9.70;;;8.60;99.90;;;;;;5072819;28;20707;-77
2020/12/06 00:36:11;;;;;;;15.43;11.13;;;8.60;99.90;;;;;;5075393;28;20200;-80
2020/12/06 00:38:39;;;;;;;13.80;10.07;;;8.60;99.90;;;;;;5076842;28;20206;-78
2020/12/06 00:41:06;;;;;;;12.88;9.82;;;8.60;99.90;;;;;;5076753;28;20202;-78
2020/12/06 00:43:32;;;;;;;15.10;10.55;;;8.70;99.90;;;;;;5076756;28;20221;-80
2020/12/06 00:45:58;;;;;;;13.40;11.20;;;8.70;99.90;;;;;;5076476;28;20249;-77
2020/12/06 00:48:24;;;;;;;18.30;10.43;;;8.70;99.90;;;;;;5076700;28;20194;-78
2020/12/06 00:50:50;;;;;;;16.13;11.57;;;8.60;99.90;;;;;;5076829;28;20554;-80
2020/12/06 00:53:17;;;;;;;14.45;11.00;;;8.60;99.90;;;;;;5076456;28;20580;-78
2020/12/06 00:55:44;;;;;;;11.98;9.93;;;8.60;99.90;;;;;;5076607;28;20259;-79
2020/12/06 00:58:10;;;;;;;14.00;10.63;;;8.60;99.90;;;;;;5076367;28;20195;-80
2020/12/06 01:00:36;;;;;;;15.80;11.25;;;8.60;99.90;;;;;;5076296;28;20205;-78
2020/12/06 01:03:03;;;;;;;20.15;11.18;;;8.60;99.90;;;;;;5076338;28;20190;-78
2020/12/06 01:05:29;;;;;;;17.35;11.35;;;8.60;99.90;;;;;;5076330;28;20198;-78
2020/12/06 01:07:55;;;;;;;16.25;11.57;;;8.60;99.90;;;;;;5076062;28;20196;-78
2020/12/06 01:10:25;;;;;;;14.90;11.38;;;8.60;99.90;;;;;;5076186;28;20197;-77
2020/12/06 01:12:52;;;;;;;13.13;11.52;;;8.70;99.90;;;;;;5075939;28;20230;-78
2020/12/06 01:15:18;;;;;;;16.70;11.07;;;8.70;99.90;;;;;;5075620;28;20206;-77
2020/12/06 01:17:45;;;;;;;15.88;11.68;;;8.80;99.90;;;;;;5076075;28;20191;-78
2020/12/06 01:20:11;;;;;;;15.25;12.05;;;8.80;99.90;;;;;;5075991;28;20252;-78
2020/12/06 01:22:37;;;;;;;16.65;12.68;;;8.90;99.90;;;;;;5076048;28;20206;-78
2020/12/06 01:25:04;;;;;;;18.23;12.55;;;8.90;99.90;;;;;;5076145;28;20197;-78
2020/12/06 01:27:31;;;;;;;16.80;13.07;;;8.90;99.90;;;;;;5076203;28;20209;-78
2020/12/06 01:29:58;;;;;;;19.20;13.23;;;9.00;99.90;;;;;;5075833;28;20201;-78
2020/12/06 01:32:24;;;;;;;15.48;11.95;;;8.80;99.90;;;;;;5075674;28;20214;-77
2020/12/06 01:34:51;;;;;;;15.95;12.38;;;8.80;99.90;;;;;;5076053;28;20190;-78
2020/12/06 01:37:17;;;;;;;15.32;12.68;;;8.80;99.90;;;;;;5075850;28;20205;-77
2020/12/06 01:39:43;;;;;;;16.45;11.65;;;8.80;99.90;;;;;;5075849;28;20205;-79
2020/12/06 01:42:09;;;;;;;15.48;11.98;;;8.80;99.90;;;;;;5075444;28;20214;-77
2020/12/06 01:44:36;;;;;;;15.88;12.35;;;8.70;99.90;;;;;;5075496;28;20689;-77
2020/12/06 01:47:04;;;;;;;18.35;12.85;;;8.70;99.90;;;;;;5074630;28;20544;-78
2020/12/06 01:49:35;;;;;;;15.57;12.50;;;8.70;99.90;;;;;;5075584;28;20202;-78
2020/12/06 01:52:03;;;;;;;18.70;12.57;;;8.80;99.90;;;;;;5075537;28;20229;-78
2020/12/06 01:54:29;;;;;;;14.52;11.90;;;8.90;99.90;;;;;;5075402;28;20198;-77
2020/12/06 01:56:56;;;;;;;15.73;13.10;;;8.80;99.90;;;;;;5075041;28;20684;-78
2020/12/06 01:59:22;;;;;;;27.50;15.10;;;8.90;99.90;;;;;;5075289;28;20667;-77
2020/12/06 02:01:55;;;;;;;20.13;15.05;;;8.80;99.90;;;;;;5075239;28;20205;-78
2020/12/06 02:04:23;;;;;;;18.30;13.68;;;8.80;99.90;;;;;;5075256;28;20206;-78
2020/12/06 02:06:50;;;;;;;20.48;15.02;;;8.80;99.90;;;;;;5075036;28;20200;-77
2020/12/06 02:09:16;;;;;;;17.95;13.90;;;8.80;99.90;;;;;;5075204;28;20195;-78
2020/12/06 02:11:42;;;;;;;21.02;13.70;;;8.80;99.90;;;;;;5074830;28;20226;-77
2020/12/06 02:14:10;;;;;;;17.02;13.55;;;8.70;99.90;;;;;;5074927;28;20229;-77
2020/12/06 02:16:36;;;;;;;17.48;13.15;;;8.70;99.90;;;;;;5074939;28;20198;-78
2020/12/06 02:19:05;;;;;;;15.48;11.88;;;8.70;99.90;;;;;;5074901;28;20233;-78
2020/12/06 02:21:33;;;;;;;14.88;12.18;;;8.70;99.90;;;;;;5074865;28;20190;-80
2020/12/06 02:23:59;;;;;;;19.33;12.38;;;8.80;99.90;;;;;;5075000;28;20532;-78
2020/12/06 02:26:25;;;;;;;17.50;12.30;;;8.70;99.90;;;;;;5074803;28;20570;-77
2020/12/06 02:28:51;;;;;;;12.60;11.20;;;8.80;99.90;;;;;;5074809;28;20198;-78
2020/12/06 02:31:18;;;;;;;16.58;12.57;;;8.80;99.90;;;;;;5074842;28;20202;-78
2020/12/06 02:33:44;;;;;;;17.80;11.80;;;8.80;99.90;;;;;;5074753;28;20245;-78
2020/12/06 02:36:10;;;;;;;17.30;12.93;;;8.80;99.90;;;;;;5074537;28;20199;-80
2020/12/06 02:38:37;;;;;;;14.43;11.95;;;8.70;99.90;;;;;;5074730;28;20200;-79
2020/12/06 02:41:03;;;;;;;13.75;11.40;;;8.80;99.90;;;;;;5074629;28;20633;-78
2020/12/06 02:43:33;;;;;;;18.35;13.23;;;8.60;99.90;;;;;;5074483;28;20546;-77
2020/12/06 02:45:59;;;;;;;18.50;12.80;;;8.60;99.90;;;;;;5074279;28;20229;-78
2020/12/06 02:48:25;;;;;;;17.60;12.38;;;8.50;99.90;;;;;;5074323;28;20206;-77
2020/12/06 02:50:51;;;;;;;18.08;13.15;;;8.50;99.90;;;;;;5074362;28;20194;-78
2020/12/06 02:53:18;;;;;;;18.33;12.73;;;8.40;99.90;;;;;;5074265;28;20576;-79
2020/12/06 02:55:45;;;;;;;22.70;14.20;;;8.40;99.90;;;;;;5074164;28;20197;-79
2020/12/06 02:58:11;;;;;;;15.30;11.38;;;8.40;99.90;;;;;;5074029;28;20206;-80
2020/12/06 03:00:37;;;;;;;17.73;12.82;;;8.30;99.90;;;;;;5074169;28;20217;-81
2020/12/06 03:03:03;;;;;;;14.60;11.10;;;8.30;99.90;;;;;;5073992;28;20200;-81
2020/12/06 03:05:30;;;;;;;17.63;13.60;;;8.40;99.90;;;;;;5073855;28;20221;-79
2020/12/06 03:07:56;;;;;;;15.77;12.02;;;8.30;99.90;;;;;;5073934;28;20637;-77
2020/12/06 03:10:22;;;;;;;15.88;11.75;;;8.30;99.90;;;;;;5073907;28;20198;-78
2020/12/06 03:12:50;;;;;;;16.10;11.95;;;8.30;99.90;;;;;;5073730;28;20558;-77
2020/12/06 03:15:16;;;;;;;18.92;13.57;;;8.40;99.90;;;;;;5073814;28;20205;-78
2020/12/06 03:17:42;;;;;;;18.17;12.25;;;8.20;99.90;;;;;;5073746;28;20199;-81
2020/12/06 03:20:08;;;;;;;13.63;11.60;;;8.30;99.90;;;;;;5073854;28;20201;-77
2020/12/06 03:22:34;;;;;;;16.55;12.27;;;8.30;99.90;;;;;;5073818;28;20202;-77
2020/12/06 03:25:01;;;;;;;14.82;12.18;;;8.40;99.90;;;;;;5073682;28;20197;-80
2020/12/06 03:27:28;;;;;;;17.10;11.70;;;8.40;99.90;;;;;;5073842;28;20197;-78
2020/12/06 03:29:57;;;;;;;16.80;11.57;;;8.40;99.90;;;;;;5073618;28;20569;-78
2020/12/06 03:32:23;;;;;;;16.98;12.70;;;8.40;99.90;;;;;;5073515;28;20202;-77
2020/12/06 03:34:50;;;;;;;19.92;14.82;;;8.40;99.90;;;;;;5073586;28;20194;-77
2020/12/06 03:37:16;;;;;;;17.75;14.02;;;8.40;99.90;;;;;;5073459;28;20557;-78
2020/12/06 03:39:43;;;;;;;17.77;13.63;;;8.40;99.90;;;;;;5073559;28;20195;-77
2020/12/06 03:42:09;;;;;;;15.20;11.70;;;8.40;99.90;;;;;;5073366;28;20220;-77
2020/12/06 03:44:35;;;;;;;16.92;11.98;;;8.40;99.90;;;;;;5073278;28;20249;-77
2020/12/06 03:47:02;;;;;;;19.77;13.15;;;8.40;99.90;;;;;;5073276;28;20199;-77
2020/12/06 03:49:29;;;;;;;20.33;14.68;;;8.30;99.90;;;;;;5073322;28;20554;-78
2020/12/06 03:51:55;;;;;;;17.17;13.80;;;8.30;99.90;;;;;;5073358;28;20209;-78
2020/12/06 03:54:21;;;;;;;16.17;12.32;;;8.30;99.90;;;;;;5073273;28;20218;-78
2020/12/06 03:56:47;;;;;;;23.85;14.20;;;8.30;99.90;;;;;;5073269;28;20629;-78
2020/12/06 03:59:14;;;;;;;17.63;13.35;;;8.30;99.90;;;;;;5073176;28;20201;-77
2020/12/06 04:01:40;;;;;;;17.08;11.75;;;8.30;99.90;;;;;;5073159;28;20198;-80
2020/12/06 04:04:07;;;;;;;20.60;14.30;;;8.40;99.90;;;;;;5072790;28;20716;-77
2020/12/06 04:06:33;;;;;;;17.83;13.73;;;8.40;99.90;;;;;;5072903;28;20225;-77
2020/12/06 04:08:59;;;;;;;21.92;15.05;;;8.40;99.90;;;;;;5073251;28;20202;-78
2020/12/06 04:11:26;;;;;;;18.45;13.95;;;8.50;99.90;;;;;;5072489;28;20222;-77
2020/12/06 04:13:52;;;;;;;21.05;13.25;;;8.60;99.90;;;;;;5073039;28;20232;-77
2020/12/06 04:16:18;;;;;;;18.55;13.23;;;8.60;99.90;;;;;;5072943;28;20194;-77
2020/12/06 04:18:44;;;;;;;18.70;13.85;;;8.70;99.90;;;;;;5073165;28;20198;-78
2020/12/06 04:21:12;;;;;;;16.33;13.75;;;8.80;99.90;;;;;;5073107;28;20563;-81
2020/12/06 04:23:39;;;;;;;16.58;12.85;;;8.80;99.90;;;;;;5073066;28;20202;-78
2020/12/06 04:26:05;;;;;;;18.95;14.52;;;8.80;99.90;;;;;;5073053;28;20190;-78
2020/12/06 04:28:31;;;;;;;17.85;13.38;;;8.90;99.90;;;;;;5073252;28;20194;-80
2020/12/06 04:30:58;;;;;;;19.75;14.75;;;8.80;99.90;;;;;;5073208;28;20206;-79
2020/12/06 04:33:24;;;;;;;20.75;13.30;;;8.80;99.90;;;;;;5073018;28;20244;-78
2020/12/06 04:35:50;;;;;;;18.58;13.32;;;8.70;99.90;;;;;;5072971;28;20194;-78
2020/12/06 04:38:18;;;;;;;16.65;13.32;;;8.70;99.90;;;;;;5072920;28;20277;-77
2020/12/06 04:40:45;;;;;;;19.65;13.90;;;8.70;99.90;;;;;;5073122;28;20190;-79
2020/12/06 04:43:13;;;;;;;18.38;13.65;;;8.80;99.90;;;;;;5072986;28;20194;-81
2020/12/06 04:45:40;;;;;;;18.42;15.18;;;8.90;99.90;;;;;;5072433;28;20234;-78
2020/12/06 04:48:09;;;;;;;22.58;15.23;;;8.80;99.90;;;;;;5073047;28;20201;-78
2020/12/06 04:50:38;;;;;;;18.65;13.52;;;8.70;99.90;;;;;;5072816;28;20199;-77
2020/12/06 04:53:06;;;;;;;20.45;15.10;;;8.70;99.90;;;;;;5072533;28;20218;-78
2020/12/06 04:55:35;;;;;;;14.02;12.35;;;8.70;99.90;;;;;;5072684;28;20198;-77
2020/12/06 04:58:02;;;;;;;19.67;13.57;;;8.70;99.90;;;;;;5072449;28;20195;-77
2020/12/06 05:00:34;;;;;;;15.60;11.93;;;8.60;99.90;;;;;;5072752;28;20205;-78
2020/12/06 05:03:05;;;;;;;20.90;13.98;;;8.60;99.90;;;;;;5072510;28;20546;-78
2020/12/06 05:05:36;;;;;;;18.02;14.27;;;8.60;99.90;;;;;;5072546;28;20198;-79
2020/12/06 05:08:08;;;;;;;17.05;13.25;;;8.50;99.90;;;;;;5072567;28;20194;-77
2020/12/06 05:10:40;;;;;;;18.83;14.15;;;8.50;99.90;;;;;;5072576;28;20198;-81
2020/12/06 05:13:07;;;;;;;20.38;14.18;;;8.50;99.90;;;;;;5072377;28;20229;-77
2020/12/06 05:15:34;;;;;;;18.70;13.25;;;8.50;99.90;;;;;;5072605;28;20202;-78
2020/12/06 05:18:00;;;;;;;20.10;14.98;;;8.50;99.90;;;;;;5071742;28;20194;-77
2020/12/06 05:20:27;;;;;;;14.85;12.32;;;8.50;99.90;;;;;;5072591;28;20191;-79
2020/12/06 05:22:54;;;;;;;18.33;14.00;;;8.50;99.90;;;;;;5073454;28;20741;-77
2020/12/06 05:25:21;;;;;;;16.63;13.77;;;8.50;99.90;;;;;;5075850;28;20562;-78
2020/12/06 05:27:49;;;;;;;18.58;13.82;;;8.50;99.90;;;;;;5075772;28;20213;-78
2020/12/06 05:30:16;;;;;;;19.70;14.60;;;8.50;99.90;;;;;;5075992;28;20293;-77
2020/12/06 05:32:42;;;;;;;17.95;13.57;;;8.50;99.90;;;;;;5075728;28;20198;-78
2020/12/06 05:35:10;;;;;;;17.13;12.93;;;8.50;99.90;;;;;;5075722;28;20191;-77
2020/12/06 05:37:37;;;;;;;17.90;13.45;;;8.50;99.90;;;;;;5075635;28;20201;-80
2020/12/06 05:40:05;;;;;;;16.05;13.48;;;8.50;99.90;;;;;;5075585;28;20198;-77
2020/12/06 05:42:33;;;;;;;19.80;14.35;;;8.50;99.90;;;;;;5075448;28;20214;-80
2020/12/06 05:45:00;;;;;;;24.00;14.70;;;8.50;99.90;;;;;;5074992;28;20547;-77
2020/12/06 05:47:27;;;;;;;18.65;12.90;;;8.60;99.90;;;;;;5075741;28;20195;-78
2020/12/06 05:49:55;;;;;;;16.63;13.73;;;8.60;99.90;;;;;;5075666;28;20642;-77
2020/12/06 05:52:21;;;;;;;20.40;13.30;;;8.50;99.90;;;;;;5075429;28;20580;-77
2020/12/06 05:54:48;;;;;;;17.70;12.77;;;8.50;99.90;;;;;;5075398;28;20226;-78
2020/12/06 05:57:15;;;;;;;16.90;12.82;;;8.60;99.90;;;;;;5075089;28;20198;-78
2020/12/06 05:59:42;;;;;;;19.67;13.20;;;8.50;99.90;;;;;;5075449;28;20190;-81
2020/12/06 06:02:09;;;;;;;18.80;13.45;;;8.50;99.90;;;;;;5075290;28;20201;-78
2020/12/06 06:04:40;;;;;;;18.42;14.10;;;8.50;99.90;;;;;;5075120;28;20198;-78
2020/12/06 06:07:15;;;;;;;19.50;13.52;;;8.50;99.90;;;;;;5075263;28;20216;-77
2020/12/06 06:09:43;;;;;;;16.73;12.05;;;8.60;99.90;;;;;;5075283;28;20645;-80
2020/12/06 06:12:30;;;;;;;19.17;14.27;;;8.60;99.90;;;;;;5074949;28;20244;-78
2020/12/06 06:14:59;;;;;;;19.10;14.00;;;8.70;99.90;;;;;;5074999;28;20236;-78
2020/12/06 06:17:28;;;;;;;19.15;14.57;;;8.70;99.90;;;;;;5075043;28;20205;-77
2020/12/06 06:19:54;;;;;;;18.65;14.13;;;8.70;99.90;;;;;;5074931;28;20197;-77
2020/12/06 06:22:28;;;;;;;18.45;14.50;;;8.80;99.90;;;;;;5074903;28;20195;-77
2020/12/06 06:24:56;;;;;;;20.10;12.90;;;8.70;99.90;;;;;;5074899;28;20198;-77
2020/12/06 06:27:23;;;;;;;21.25;14.13;;;8.60;99.90;;;;;;5074951;28;20538;-77
2020/12/06 06:29:50;;;;;;;16.48;13.32;;;8.70;99.90;;;;;;5074939;28;20267;-78
2020/12/06 06:32:18;;;;;;;19.08;13.55;;;8.70;99.90;;;;;;5074807;28;20649;-77
2020/12/06 06:34:46;;;;;;;17.83;13.85;;;8.60;99.90;;;;;;5074015;28;20226;-78
2020/12/06 06:37:14;;;;;;;18.88;12.80;;;8.60;99.90;;;;;;5074454;28;20248;-80
2020/12/06 06:39:42;;;;;;;20.80;14.60;;;8.70;99.90;;;;;;5074778;28;20194;-78
2020/12/06 06:42:11;;;;;;;18.35;13.57;;;8.70;99.90;;;;;;5074286;28;20233;-81
2020/12/06 06:44:39;;;;;;;18.50;13.80;;;8.70;99.90;;;;;;5074285;28;20229;-81
2020/12/06 06:47:08;;;;;;;18.88;13.27;;;8.70;99.90;;;;;;5074407;28;20198;-81
2020/12/06 06:52:31;;;;;;;20.52;14.48;;;8.70;99.90;;;;;;5111186;27;20545;-79
2020/12/06 06:54:59;;;;;;;16.02;13.13;;;8.90;99.90;;;;;;5111183;28;20637;-81
2020/12/06 06:57:27;;;;;;;17.67;14.35;;;8.80;99.90;;;;;;5110764;28;20288;-79
2020/12/06 06:59:54;;;;;;;20.27;14.65;;;8.80;99.90;;;;;;5111061;28;20197;-78
2020/12/06 07:02:32;;;;;;;19.63;14.13;;;8.80;99.90;;;;;;5110882;28;20564;-79
2020/12/06 07:04:59;;;;;;;18.95;13.02;;;8.80;99.90;;;;;;5111061;28;20556;-79
2020/12/06 07:07:45;;;;;;;19.48;13.63;;;8.80;99.90;;;;;;5110848;28;20200;-79
2020/12/06 07:10:13;;;;;;;18.10;13.40;;;8.80;99.90;;;;;;5110854;28;20287;-80
2020/12/06 07:12:50;;;;;;;18.85;14.02;;;8.80;99.90;;;;;;5110659;28;20213;-79
2020/12/06 07:15:18;;;;;;;19.95;13.38;;;8.90;99.90;;;;;;5110815;28;20189;-79
2020/12/06 07:17:45;;;;;;;20.75;15.35;;;8.90;99.90;;;;;;5110708;28;20197;-79
2020/12/06 07:20:12;;;;;;;24.38;15.90;;;8.80;99.90;;;;;;5110728;28;20193;-78
2020/12/06 07:22:40;;;;;;;18.83;14.13;;;8.80;99.90;;;;;;5110535;28;20193;-79
2020/12/06 07:25:09;;;;;;;19.70;14.30;;;8.70;99.90;;;;;;5110577;28;20548;-79
2020/12/06 07:27:35;;;;;;;16.58;12.68;;;8.70;99.90;;;;;;5110523;28;20196;-82
2020/12/06 07:30:04;;;;;;;19.30;15.05;;;8.70;99.90;;;;;;5110338;28;20193;-78
2020/12/06 07:32:31;;;;;;;17.75;13.57;;;8.70;99.90;;;;;;5110425;28;20197;-79
2020/12/06 07:34:57;;;;;;;19.17;15.40;;;8.70;99.90;;;;;;5110406;28;20189;-78
2020/12/06 07:37:23;;;;;;;16.92;13.80;;;8.70;99.90;;;;;;5110382;28;20204;-78
2020/12/06 07:39:50;;;;;;;19.23;14.15;;;8.70;99.90;;;;;;5110357;28;20212;-79
2020/12/06 07:42:21;;;;;;;19.27;14.30;;;8.70;99.90;;;;;;5110247;28;20216;-78
2020/12/06 07:44:49;;;;;;;17.10;14.85;;;8.70;99.90;;;;;;5110094;28;20193;-82
2020/12/06 07:47:15;;;;;;;20.65;14.70;;;8.70;99.90;;;;;;5110155;28;20197;-78
2020/12/06 07:49:46;;;;;;;16.75;13.05;;;8.80;99.90;;;;;;5110160;28;20197;-79
2020/12/06 07:52:17;;;;;;;19.88;13.93;;;8.80;99.90;;;;;;5109735;28;20233;-78
2020/12/06 07:54:55;;;;;;;18.15;14.30;;;9.00;99.90;;;;;;5109964;28;20189;-79
2020/12/06 07:57:33;;;;;;;17.50;13.10;;;9.00;99.90;;;;;;5110015;28;20188;-80
2020/12/06 08:00:01;;;;;;;20.13;14.70;;;9.10;99.90;;;;;;5110026;28;20204;-78
2020/12/06 08:02:32;;;;;;;16.83;13.30;;;9.20;99.90;;;;;;5103795;28;20554;-82
2020/12/06 08:04:59;;;;;;;19.25;15.63;;;9.20;99.90;;;;;;5096302;28;20201;-78
2020/12/06 08:07:30;;;;;;;17.48;13.40;;;9.20;99.90;;;;;;5096257;28;20204;-78
2020/12/06 08:10:00;;;;;;;22.05;14.27;;;9.30;99.90;;;;;;5096313;28;20217;-78
2020/12/06 08:12:29;;;;;;;18.23;15.18;;;9.30;99.90;;;;;;5095798;28;20591;-78
2020/12/06 08:15:00;;;;;;;18.58;13.85;;;9.40;99.90;;;;;;5096029;28;20276;-79
2020/12/06 08:17:40;;;;;;;17.88;14.45;;;9.40;99.90;;;;;;5095921;28;20657;-81
2020/12/06 08:20:09;;;;;;;17.58;13.60;;;9.40;99.90;;;;;;5096089;28;20567;-81
2020/12/06 08:22:45;;;;;;;18.85;13.30;;;9.30;99.90;;;;;;5095902;28;20247;-78
2020/12/06 08:25:12;;;;;;;18.65;14.23;;;9.30;99.90;;;;;;5095835;28;20201;-79
2020/12/06 08:27:43;;;;;;;17.83;14.50;;;9.30;99.90;;;;;;5095812;28;20197;-78
2020/12/06 08:30:12;;;;;;;16.25;14.55;;;9.30;99.90;;;;;;5095639;28;20197;-79
2020/12/06 08:32:38;;;;;;;20.20;13.27;;;9.20;99.90;;;;;;5095717;28;20591;-78
2020/12/06 08:35:04;;;;;;;18.90;14.52;;;9.20;99.90;;;;;;5095695;28;20193;-78
2020/12/06 08:37:34;;;;;;;16.00;12.75;;;9.20;99.90;;;;;;5095714;28;20559;-79
2020/12/06 08:40:02;;;;;;;18.42;14.10;;;9.20;99.90;;;;;;5095257;28;20190;-79
2020/12/06 08:42:30;;;;;;;21.67;15.63;;;9.10;99.90;;;;;;5095422;28;20219;-78
2020/12/06 08:45:00;;;;;;;20.75;14.75;;;9.10;99.90;;;;;;5095336;28;20189;-80
2020/12/06 08:47:28;;;;;;;19.17;15.75;;;9.10;99.90;;;;;;5095478;28;20198;-78
2020/12/06 08:50:13;;;;;;;21.83;14.63;;;9.10;99.90;;;;;;5095273;28;20216;-78
2020/12/06 08:52:39;;;;;;;20.98;14.20;;;9.10;99.90;;;;;;5095228;28;20201;-79
2020/12/06 08:55:27;;;;;;;19.70;14.70;;;9.20;99.90;;;;;;5095334;28;20194;-78
2020/12/06 08:57:56;;;;;;;18.40;14.20;;;9.20;99.90;;;;;;5087150;28;20676;-79
2020/12/06 09:00:22;;;;;;;20.48;15.13;;;9.20;99.90;;;;;;5095134;28;20558;-77
2020/12/06 09:02:49;;;;;;;16.10;13.07;;;9.30;99.90;;;;;;5095063;28;20193;-80
2020/12/06 09:05:15;;;;;;;18.98;14.90;;;9.30;99.90;;;;;;5094946;28;20570;-79
2020/12/06 09:07:42;;;;;;;19.50;15.10;;;9.30;99.90;;;;;;5095029;28;20204;-79
2020/12/06 09:10:09;;;;;;;18.02;14.68;;;9.40;99.90;;;;;;5095356;28;20590;-79
2020/12/06 09:12:36;;;;;;;18.42;14.35;;;9.40;99.90;;;;;;5094790;28;20229;-79
2020/12/06 09:15:05;;;;;;;19.05;15.15;;;9.40;99.90;;;;;;5093844;28;20193;-78
2020/12/06 09:17:31;;;;;;;18.83;14.25;;;9.50;99.90;;;;;;5094684;28;20193;-78
2020/12/06 09:19:58;;;;;;;18.08;13.80;;;9.50;99.90;;;;;;5094693;28;20201;-81
2020/12/06 09:22:24;;;;;;;18.20;15.25;;;9.50;99.90;;;;;;5094650;28;20206;-77
2020/12/06 09:24:50;;;;;;;17.30;13.25;;;9.50;99.90;;;;;;5094471;28;20193;-78
2020/12/06 09:27:16;;;;;;;16.25;13.00;;;9.50;99.90;;;;;;5094745;28;20205;-78
2020/12/06 09:29:43;;;;;;;19.20;14.20;;;9.40;99.90;;;;;;5094413;28;20193;-81
2020/12/06 09:32:10;;;;;;;15.70;13.50;;;9.40;99.90;;;;;;5094421;28;20225;-78
2020/12/06 09:34:36;;;;;;;17.73;12.30;;;9.40;99.90;;;;;;5094509;28;20204;-78
2020/12/06 09:37:02;;;;;;;16.77;13.00;;;9.40;99.90;;;;;;5094409;28;20299;-79
2020/12/06 09:39:29;;;;;;;19.45;14.65;;;9.50;99.90;;;;;;5094434;28;20641;-78
2020/12/06 09:41:55;;;;;;;20.73;14.43;;;9.50;99.90;;;;;;5094330;28;20213;-79
2020/12/06 09:44:21;;;;;;;18.73;13.80;;;9.50;99.90;;;;;;5094294;28;20193;-82
2020/12/06 09:46:47;;;;;;;14.60;12.05;;;9.60;99.90;;;;;;5094299;28;20648;-79
2020/12/06 09:49:14;;;;;;;17.60;14.32;;;9.60;99.90;;;;;;5094157;28;20216;-78
2020/12/06 09:51:42;;;;;;;18.75;14.45;;;9.70;99.90;;;;;;5093935;28;20245;-78
2020/12/06 09:54:08;;;;;;;19.23;14.65;;;9.60;99.90;;;;;;5094213;28;20202;-79
2020/12/06 09:56:34;;;;;;;16.30;13.60;;;9.60;99.90;;;;;;5094221;28;20201;-78
2020/12/06 09:59:01;;;;;;;17.20;12.60;;;9.60;99.90;;;;;;5094199;28;20676;-78
2020/12/06 10:01:27;;;;;;;18.33;14.52;;;9.60;99.90;;;;;;5094062;28;20205;-78
2020/12/06 10:03:53;;;;;;;17.95;14.00;;;9.70;99.90;;;;;;5093855;28;20194;-79
2020/12/06 10:06:24;;;;;;;15.82;12.30;;;9.70;99.90;;;;;;5093864;28;20194;-79
2020/12/06 10:08:51;;;;;;;20.48;15.77;;;9.70;99.90;;;;;;5093874;28;20197;-79
2020/12/06 10:11:17;;;;;;;20.60;15.98;;;9.80;99.90;;;;;;5093615;28;20583;-81
2020/12/06 10:13:43;;;;;;;19.38;14.93;;;9.90;99.90;;;;;;5093733;28;20190;-78
2020/12/06 10:16:10;;;;;;;20.42;15.02;;;9.80;99.90;;;;;;5093945;28;20652;-80
2020/12/06 10:18:36;;;;;;;20.48;14.82;;;9.90;99.90;;;;;;5093703;28;20641;-78
2020/12/06 10:21:03;;;;;;;20.05;15.93;;;9.90;99.90;;;;;;5093554;28;20233;-78
2020/12/06 10:23:30;;;;;;;20.08;16.17;;;9.80;99.90;;;;;;5093822;28;20637;-81
2020/12/06 10:25:56;;;;;;;19.42;14.73;;;9.80;99.90;;;;;;5093518;28;20201;-78
2020/12/06 10:28:22;;;;;;;19.52;14.88;;;9.90;99.90;;;;;;5093675;28;20226;-78
2020/12/06 10:30:49;;;;;;;18.80;15.30;;;9.90;99.90;;;;;;5093393;28;20221;-78
2020/12/06 10:33:15;;;;;;;22.73;15.40;;;9.90;99.90;;;;;;5093487;28;20288;-78
2020/12/06 10:35:44;;;;;;;19.23;16.20;;;9.90;99.90;;;;;;5093430;28;20197;-78
2020/12/06 10:38:10;;;;;;;24.33;17.55;;;9.90;99.90;;;;;;5093538;28;20250;-78
2020/12/06 10:40:38;;;;;;;22.67;17.30;;;9.90;99.90;;;;;;5093160;28;20213;-78
2020/12/06 10:43:05;;;;;;;23.67;17.10;;;10.00;99.90;;;;;;5093148;28;20204;-78
2020/12/06 10:45:34;;;;;;;22.42;17.63;;;10.10;99.90;;;;;;5093088;28;20279;-78
2020/12/06 10:48:00;;;;;;;23.65;17.42;;;10.10;99.90;;;;;;5093188;28;20568;-77
2020/12/06 10:50:27;;;;;;;22.65;19.33;;;10.10;99.90;;;;;;5093009;28;20594;-78
2020/12/06 10:52:53;;;;;;;25.08;19.58;;;10.10;99.90;;;;;;5093228;28;20551;-78
2020/12/06 10:55:24;;;;;;;25.55;16.48;;;10.00;99.90;;;;;;5093020;28;20529;-78
2020/12/06 10:57:52;;;;;;;24.10;18.90;;;9.90;99.90;;;;;;5093242;28;20284;-80
2020/12/06 11:00:20;;;;;;;21.65;16.98;;;9.80;99.90;;;;;;5093046;28;20247;-80
2020/12/06 11:02:46;;;;;;;25.25;16.92;;;9.80;99.90;;;;;;5092850;28;20227;-80
2020/12/06 11:05:13;;;;;;;24.10;16.45;;;9.60;99.90;;;;;;5092729;28;20211;-80
2020/12/06 11:07:42;;;;;;;20.77;16.15;;;9.60;99.90;;;;;;5091393;28;20206;-80
2020/12/06 11:10:11;;;;;;;23.75;17.02;;;9.50;99.90;;;;;;5092550;28;20209;-80
2020/12/06 11:12:38;;;;;;;26.35;16.88;;;9.30;99.90;;;;;;5092597;28;20229;-80
2020/12/06 11:15:05;;;;;;;20.48;16.27;;;9.20;99.90;;;;;;5092782;28;20194;-80
2020/12/06 11:17:31;;;;;;;23.15;17.98;;;9.30;99.90;;;;;;5092870;28;20566;-80
2020/12/06 11:19:58;;;;;;;27.85;20.52;;;9.40;99.90;;;;;;5093062;28;20554;-80
2020/12/06 11:22:25;;;;;;;22.55;17.40;;;9.40;99.90;;;;;;5092858;28;20225;-80
2020/12/06 11:24:51;;;;;;;25.92;18.02;;;9.50;99.90;;;;;;5092939;28;20198;-80
2020/12/06 11:27:21;;;;;;;22.05;17.20;;;9.40;99.90;;;;;;5093027;28;20194;-80
2020/12/06 11:29:48;;;;;;;31.10;17.15;;;9.40;99.90;;;;;;5092691;28;20719;-81
2020/12/06 11:32:15;;;;;;;23.05;16.23;;;9.30;99.90;;;;;;5092619;28;20263;-80
2020/12/06 11:34:41;;;;;;;21.33;16.15;;;9.10;99.90;;;;;;5092708;28;20201;-80
2020/12/06 11:37:10;;;;;;;25.25;19.17;;;8.90;99.90;;;;;;5093096;28;20205;-80
2020/12/06 11:39:36;;;;;;;24.50;17.65;;;8.80;99.90;;;;;;5096621;28;20288;-80
2020/12/06 11:42:03;;;;;;;28.83;18.10;;;8.80;99.90;;;;;;5096390;28;20224;-80
2020/12/06 11:44:29;;;;;;;25.80;17.15;;;8.80;99.90;;;;;;5096500;28;20197;-80
2020/12/06 11:46:55;;;;;;;28.25;17.60;;;8.90;99.90;;;;;;5096757;28;20193;-80
2020/12/06 11:49:22;;;;;;;25.33;16.92;;;8.90;99.90;;;;;;5096343;28;20201;-80
2020/12/06 11:51:49;;;;;;;25.92;17.73;;;8.90;99.90;;;;;;5096066;28;20589;-81
2020/12/06 11:54:16;;;;;;;24.95;18.90;;;8.90;99.90;;;;;;5096518;28;20645;-81
2020/12/06 11:56:48;;;;;;;23.00;17.52;;;9.00;99.90;;;;;;5096384;28;20288;-80
2020/12/06 11:59:14;;;;;;;22.00;16.05;;;9.10;99.90;;;;;;5083515;28;20236;-80
2020/12/06 12:01:40;;;;;;;23.10;17.38;;;9.10;99.90;;;;;;5094220;28;20194;-81
2020/12/06 12:04:07;;;;;;;22.00;18.00;;;9.10;99.90;;;;;;5079298;28;20191;-81
2020/12/06 12:06:34;;;;;;;24.52;17.95;;;9.20;99.90;;;;;;5094875;28;20185;-81
2020/12/06 12:09:00;;;;;;;22.38;17.23;;;9.30;99.90;;;;;;5095895;28;20197;-81
2020/12/06 12:11:26;;;;;;;21.52;16.50;;;9.30;99.90;;;;;;5095809;28;20228;-81
2020/12/06 12:13:52;;;;;;;24.40;18.08;;;9.10;99.90;;;;;;5096099;28;20202;-81
2020/12/06 12:16:19;;;;;;;27.08;18.80;;;9.00;99.90;;;;;;5096132;28;20193;-81
2020/12/06 12:18:45;;;;;;;27.02;17.92;;;9.00;99.90;;;;;;5096049;28;20200;-80
2020/12/06 12:21:11;;;;;;;23.25;17.73;;;8.90;99.90;;;;;;5095782;28;20202;-81
2020/12/06 12:23:39;;;;;;;22.50;16.67;;;9.00;99.90;;;;;;5095806;28;20197;-80
2020/12/06 12:26:05;;;;;;;24.90;17.13;;;9.00;99.90;;;;;;5095978;28;20557;-81
2020/12/06 12:28:31;;;;;;;25.23;17.80;;;9.20;99.90;;;;;;5095866;28;20205;-81
2020/12/06 12:30:57;;;;;;;23.60;17.42;;;9.30;99.90;;;;;;5095511;28;20645;-81
2020/12/06 12:33:23;;;;;;;22.35;17.50;;;9.40;99.90;;;;;;5095812;28;20645;-81
2020/12/06 12:35:50;;;;;;;23.92;18.05;;;9.40;99.90;;;;;;5095699;28;20598;-81
2020/12/06 12:38:16;;;;;;;27.10;19.08;;;9.40;99.90;;;;;;5095918;28;20220;-82
2020/12/06 12:40:43;;;;;;;25.23;18.95;;;9.30;99.90;;;;;;5084259;28;20210;-81
2020/12/06 12:43:09;;;;;;;23.38;17.02;;;9.20;99.90;;;;;;5076408;28;20190;-82